sensor_id;sensor_type;location;lat;lon;timestamp;temperature;humidity
32660;DHT22;19064;47.912;12.308;2023-08-06T00:00:26;13.70;99.90
32660;DHT22;19064;47.912;12.308;2023-08-06T00:02:53;13.70;99.90
32660;DHT22;19064;47.912;12.308;2023-08-06T00:05:21;13.70;99.90
32660;DHT22;19064;47.912;12.308;2023-08-06T00:07:47;13.60;99.90
32660;DHT22;19064;47.912;12.308;2023-08-06T00:10:14;13.60;99.90
32660;DHT22;19064;47.912;12.308;2023-08-06T00:12:41;13.70;99.90
32660;DHT22;19064;47.912;12.308;2023-08-06T00:15:09;13.70;99.90
32660;DHT22;19064;47.912;12.308;2023-08-06T00:17:36;13.70;99.90
32660;DHT22;19064;47.912;12.308;2023-08-06T00:20:04;13.70;99.90
32660;DHT22;19064;47.912;12.308;2023-08-06T00:22:33;13.80;99.90
32660;DHT22;19064;47.912;12.308;2023-08-06T00:25:00;13.90;99.90
32660;DHT22;19064;47.912;12.308;2023-08-06T00:27:27;14.10;99.90
32660;DHT22;19064;47.912;12.308;2023-08-06T00:29:54;14.10;99.90
32660;DHT22;19064;47.912;12.308;2023-08-06T00:32:21;14.30;99.90
32660;DHT22;19064;47.912;12.308;2023-08-06T00:34:48;14.30;99.90
32660;DHT22;19064;47.912;12.308;2023-08-06T00:37:16;14.10;99.90
32660;DHT22;19064;47.912;12.308;2023-08-06T00:39:44;13.90;99.90
32660;DHT22;19064;47.912;12.308;2023-08-06T00:42:12;13.90;99.90
32660;DHT22;19064;47.912;12.308;2023-08-06T00:44:38;13.90;99.90
32660;DHT22;19064;47.912;12.308;2023-08-06T00:47:07;13.90;99.90
32660;DHT22;19064;47.912;12.308;2023-08-06T00:49:35;14.00;99.90
32660;DHT22;19064;47.912;12.308;2023-08-06T00:52:03;13.90;99.90
32660;DHT22;19064;47.912;12.308;2023-08-06T00:54:30;13.90;99.90
32660;DHT22;19064;47.912;12.308;2023-08-06T00:57:00;13.90;99.90
32660;DHT22;19064;47.912;12.308;2023-08-06T00:59:27;13.80;99.90
32660;DHT22;19064;47.912;12.308;2023-08-06T01:01:54;13.80;99.90
32660;DHT22;19064;47.912;12.308;2023-08-06T01:04:22;13.80;99.90
32660;DHT22;19064;47.912;12.308;2023-08-06T01:07:01;13.80;99.90
32660;DHT22;19064;47.912;12.308;2023-08-06T01:09:35;13.90;99.90
32660;DHT22;19064;47.912;12.308;2023-08-06T01:12:16;13.90;99.90
32660;DHT22;19064;47.912;12.308;2023-08-06T01:14:59;13.90;99.90
32660;DHT22;19064;47.912;12.308;2023-08-06T01:17:28;13.90;99.90
32660;DHT22;19064;47.912;12.308;2023-08-06T01:19:55;13.90;99.90
32660;DHT22;19064;47.912;12.308;2023-08-06T01:22:24;13.90;99.90
32660;DHT22;19064;47.912;12.308;2023-08-06T01:24:51;13.80;99.90
32660;DHT22;19064;47.912;12.308;2023-08-06T01:27:23;14.00;99.90
32660;DHT22;19064;47.912;12.308;2023-08-06T01:29:58;14.10;99.90
32660;DHT22;19064;47.912;12.308;2023-08-06T01:32:29;14.10;99.90
32660;DHT22;19064;47.912;12.308;2023-08-06T01:35:00;14.10;99.90
32660;DHT22;19064;47.912;12.308;2023-08-06T01:37:28;14.10;99.90
32660;DHT22;19064;47.912;12.308;2023-08-06T01:39:55;14.00;99.90
32660;DHT22;19064;47.912;12.308;2023-08-06T01:42:22;13.90;99.90
32660;DHT22;19064;47.912;12.308;2023-08-06T01:44:49;13.90;99.90
32660;DHT22;19064;47.912;12.308;2023-08-06T01:47:15;13.90;99.90
32660;DHT22;19064;47.912;12.308;2023-08-06T01:49:42;14.00;99.90
32660;DHT22;19064;47.912;12.308;2023-08-06T01:52:09;14.00;99.90
32660;DHT22;19064;47.912;12.308;2023-08-06T01:54:37;14.00;99.90
32660;DHT22;19064;47.912;12.308;2023-08-06T01:57:04;14.00;99.90
32660;DHT22;19064;47.912;12.308;2023-08-06T01:59:31;13.90;99.90
32660;DHT22;19064;47.912;12.308;2023-08-06T02:01:58;14.10;99.90
32660;DHT22;19064;47.912;12.308;2023-08-06T02:04:24;14.00;99.90
32660;DHT22;19064;47.912;12.308;2023-08-06T02:06:51;14.00;99.90
32660;DHT22;19064;47.912;12.308;2023-08-06T02:09:18;14.00;99.90
32660;DHT22;19064;47.912;12.308;2023-08-06T02:11:46;14.00;99.90
32660;DHT22;19064;47.912;12.308;2023-08-06T02:14:13;14.10;99.90
32660;DHT22;19064;47.912;12.308;2023-08-06T02:16:39;14.00;99.90
32660;DHT22;19064;47.912;12.308;2023-08-06T02:19:06;14.00;99.90
32660;DHT22;19064;47.912;12.308;2023-08-06T02:21:33;14.00;99.90
32660;DHT22;19064;47.912;12.308;2023-08-06T02:24:00;13.90;99.90
32660;DHT22;19064;47.912;12.308;2023-08-06T02:26:26;13.90;99.90
32660;DHT22;19064;47.912;12.308;2023-08-06T02:28:54;13.90;99.90
32660;DHT22;19064;47.912;12.308;2023-08-06T02:31:21;13.90;99.90
32660;DHT22;19064;47.912;12.308;2023-08-06T02:33:48;13.80;99.90
32660;DHT22;19064;47.912;12.308;2023-08-06T02:36:15;13.80;99.90
32660;DHT22;19064;47.912;12.308;2023-08-06T02:38:41;13.80;99.90
32660;DHT22;19064;47.912;12.308;2023-08-06T02:41:08;13.90;99.90
32660;DHT22;19064;47.912;12.308;2023-08-06T02:43:36;13.90;99.90
32660;DHT22;19064;47.912;12.308;2023-08-06T02:46:05;13.70;99.90
32660;DHT22;19064;47.912;12.308;2023-08-06T02:48:33;13.60;99.90
32660;DHT22;19064;47.912;12.308;2023-08-06T02:51:01;13.80;99.90
32660;DHT22;19064;47.912;12.308;2023-08-06T02:53:29;13.80;99.90
32660;DHT22;19064;47.912;12.308;2023-08-06T02:55:58;13.80;99.90
32660;DHT22;19064;47.912;12.308;2023-08-06T02:58:26;13.70;99.90
32660;DHT22;19064;47.912;12.308;2023-08-06T03:01:01;13.60;99.90
32660;DHT22;19064;47.912;12.308;2023-08-06T03:03:31;13.70;99.90
32660;DHT22;19064;47.912;12.308;2023-08-06T03:06:00;13.60;99.90
32660;DHT22;19064;47.912;12.308;2023-08-06T03:08:28;13.60;99.90
32660;DHT22;19064;47.912;12.308;2023-08-06T03:10:56;13.60;99.90
32660;DHT22;19064;47.912;12.308;2023-08-06T03:13:24;13.50;99.90
32660;DHT22;19064;47.912;12.308;2023-08-06T03:15:56;13.60;99.90
32660;DHT22;19064;47.912;12.308;2023-08-06T03:18:24;13.40;99.90
32660;DHT22;19064;47.912;12.308;2023-08-06T03:20:54;13.50;99.90
32660;DHT22;19064;47.912;12.308;2023-08-06T03:23:23;13.40;99.90
32660;DHT22;19064;47.912;12.308;2023-08-06T03:25:51;13.40;99.90
32660;DHT22;19064;47.912;12.308;2023-08-06T03:28:19;13.30;99.90
32660;DHT22;19064;47.912;12.308;2023-08-06T03:30:47;13.40;99.90
32660;DHT22;19064;47.912;12.308;2023-08-06T03:33:15;13.40;99.90
32660;DHT22;19064;47.912;12.308;2023-08-06T03:35:43;13.40;99.90
32660;DHT22;19064;47.912;12.308;2023-08-06T03:38:12;13.30;99.90
32660;DHT22;19064;47.912;12.308;2023-08-06T03:40:40;13.30;99.90
32660;DHT22;19064;47.912;12.308;2023-08-06T03:43:08;13.30;99.90
32660;DHT22;19064;47.912;12.308;2023-08-06T03:45:36;13.30;99.90
32660;DHT22;19064;47.912;12.308;2023-08-06T03:48:04;13.40;99.90
32660;DHT22;19064;47.912;12.308;2023-08-06T03:50:31;13.30;99.90
32660;DHT22;19064;47.912;12.308;2023-08-06T03:52:59;13.40;99.90
32660;DHT22;19064;47.912;12.308;2023-08-06T03:55:28;13.30;99.90
32660;DHT22;19064;47.912;12.308;2023-08-06T03:57:55;13.30;99.90
32660;DHT22;19064;47.912;12.308;2023-08-06T04:00:22;13.40;99.90
32660;DHT22;19064;47.912;12.308;2023-08-06T04:02:50;13.20;99.90
32660;DHT22;19064;47.912;12.308;2023-08-06T04:05:18;13.30;99.90
32660;DHT22;19064;47.912;12.308;2023-08-06T04:07:46;13.20;99.90
32660;DHT22;19064;47.912;12.308;2023-08-06T04:10:13;13.20;99.90
32660;DHT22;19064;47.912;12.308;2023-08-06T04:12:42;13.20;99.90
32660;DHT22;19064;47.912;12.308;2023-08-06T04:15:10;13.20;99.90
32660;DHT22;19064;47.912;12.308;2023-08-06T04:17:38;13.20;99.90
32660;DHT22;19064;47.912;12.308;2023-08-06T04:20:07;13.30;99.90
32660;DHT22;19064;47.912;12.308;2023-08-06T04:22:35;13.30;99.90
32660;DHT22;19064;47.912;12.308;2023-08-06T04:25:04;13.30;99.90
32660;DHT22;19064;47.912;12.308;2023-08-06T04:27:30;13.20;99.90
32660;DHT22;19064;47.912;12.308;2023-08-06T04:29:59;13.30;99.90
32660;DHT22;19064;47.912;12.308;2023-08-06T04:32:26;13.30;99.90
32660;DHT22;19064;47.912;12.308;2023-08-06T04:34:55;13.30;99.90
32660;DHT22;19064;47.912;12.308;2023-08-06T04:37:23;13.30;99.90
32660;DHT22;19064;47.912;12.308;2023-08-06T04:39:51;13.30;99.90
32660;DHT22;19064;47.912;12.308;2023-08-06T04:42:19;13.30;99.90
32660;DHT22;19064;47.912;12.308;2023-08-06T04:44:47;13.30;99.90
32660;DHT22;19064;47.912;12.308;2023-08-06T04:47:19;13.20;99.90
32660;DHT22;19064;47.912;12.308;2023-08-06T04:49:47;13.30;99.90
32660;DHT22;19064;47.912;12.308;2023-08-06T04:52:16;13.30;99.90
32660;DHT22;19064;47.912;12.308;2023-08-06T04:54:44;13.20;99.90
32660;DHT22;19064;47.912;12.308;2023-08-06T04:57:11;13.20;99.90
32660;DHT22;19064;47.912;12.308;2023-08-06T04:59:39;13.20;99.90
32660;DHT22;19064;47.912;12.308;2023-08-06T05:02:05;13.20;99.90
32660;DHT22;19064;47.912;12.308;2023-08-06T05:04:35;13.20;99.90
32660;DHT22;19064;47.912;12.308;2023-08-06T05:07:02;13.30;99.90
32660;DHT22;19064;47.912;12.308;2023-08-06T05:09:30;13.30;99.90
32660;DHT22;19064;47.912;12.308;2023-08-06T05:11:57;13.40;99.90
32660;DHT22;19064;47.912;12.308;2023-08-06T05:14:24;13.50;99.90
32660;DHT22;19064;47.912;12.308;2023-08-06T05:16:51;13.50;99.90
32660;DHT22;19064;47.912;12.308;2023-08-06T05:19:19;13.50;99.90
32660;DHT22;19064;47.912;12.308;2023-08-06T05:21:49;13.70;99.90
32660;DHT22;19064;47.912;12.308;2023-08-06T05:24:17;13.70;99.90
32660;DHT22;19064;47.912;12.308;2023-08-06T05:26:44;13.80;99.90
32660;DHT22;19064;47.912;12.308;2023-08-06T05:29:13;13.80;99.90
32660;DHT22;19064;47.912;12.308;2023-08-06T05:31:40;13.70;99.90
32660;DHT22;19064;47.912;12.308;2023-08-06T05:34:07;13.70;99.90
32660;DHT22;19064;47.912;12.308;2023-08-06T05:36:34;13.60;99.90
32660;DHT22;19064;47.912;12.308;2023-08-06T05:39:03;13.50;99.90
32660;DHT22;19064;47.912;12.308;2023-08-06T05:41:31;13.50;99.90
32660;DHT22;19064;47.912;12.308;2023-08-06T05:43:59;13.40;99.90
32660;DHT22;19064;47.912;12.308;2023-08-06T05:46:26;13.50;99.90
32660;DHT22;19064;47.912;12.308;2023-08-06T05:48:54;13.50;99.90
32660;DHT22;19064;47.912;12.308;2023-08-06T05:51:21;13.50;99.90
32660;DHT22;19064;47.912;12.308;2023-08-06T05:53:49;13.40;99.90
32660;DHT22;19064;47.912;12.308;2023-08-06T05:56:19;13.60;99.90
32660;DHT22;19064;47.912;12.308;2023-08-06T05:58:46;13.50;99.90
32660;DHT22;19064;47.912;12.308;2023-08-06T06:01:13;13.60;99.90
32660;DHT22;19064;47.912;12.308;2023-08-06T06:03:42;13.70;99.90
32660;DHT22;19064;47.912;12.308;2023-08-06T06:06:09;13.60;99.90
32660;DHT22;19064;47.912;12.308;2023-08-06T06:08:36;13.60;99.90
32660;DHT22;19064;47.912;12.308;2023-08-06T06:11:03;13.70;99.90
32660;DHT22;19064;47.912;12.308;2023-08-06T06:13:32;13.60;99.90
32660;DHT22;19064;47.912;12.308;2023-08-06T06:16:00;13.50;99.90
32660;DHT22;19064;47.912;12.308;2023-08-06T06:18:28;13.50;99.90
32660;DHT22;19064;47.912;12.308;2023-08-06T06:20:55;13.50;99.90
32660;DHT22;19064;47.912;12.308;2023-08-06T06:23:23;13.50;99.90
32660;DHT22;19064;47.912;12.308;2023-08-06T06:25:50;13.50;99.90
32660;DHT22;19064;47.912;12.308;2023-08-06T06:28:18;13.50;99.90
32660;DHT22;19064;47.912;12.308;2023-08-06T06:30:48;13.60;99.90
32660;DHT22;19064;47.912;12.308;2023-08-06T06:33:16;13.50;99.90
32660;DHT22;19064;47.912;12.308;2023-08-06T06:35:44;13.50;99.90
32660;DHT22;19064;47.912;12.308;2023-08-06T06:38:13;13.40;99.90
32660;DHT22;19064;47.912;12.308;2023-08-06T06:40:39;13.50;99.90
32660;DHT22;19064;47.912;12.308;2023-08-06T06:43:07;13.70;99.90
32660;DHT22;19064;47.912;12.308;2023-08-06T06:45:36;13.80;99.90
32660;DHT22;19064;47.912;12.308;2023-08-06T06:48:05;13.80;99.90
32660;DHT22;19064;47.912;12.308;2023-08-06T06:50:32;13.90;99.90
32660;DHT22;19064;47.912;12.308;2023-08-06T06:53:00;14.00;99.90
32660;DHT22;19064;47.912;12.308;2023-08-06T06:55:28;14.00;99.90
32660;DHT22;19064;47.912;12.308;2023-08-06T06:57:55;14.00;99.90
32660;DHT22;19064;47.912;12.308;2023-08-06T07:00:21;14.10;99.90
32660;DHT22;19064;47.912;12.308;2023-08-06T07:02:49;14.10;99.90
32660;DHT22;19064;47.912;12.308;2023-08-06T07:05:19;14.20;99.90
32660;DHT22;19064;47.912;12.308;2023-08-06T07:07:47;14.30;99.90
32660;DHT22;19064;47.912;12.308;2023-08-06T07:10:14;14.40;99.90
32660;DHT22;19064;47.912;12.308;2023-08-06T07:12:42;14.40;99.90
32660;DHT22;19064;47.912;12.308;2023-08-06T07:15:10;14.30;99.90
32660;DHT22;19064;47.912;12.308;2023-08-06T07:17:38;14.30;99.90
32660;DHT22;19064;47.912;12.308;2023-08-06T07:20:07;14.40;99.90
32660;DHT22;19064;47.912;12.308;2023-08-06T07:22:36;14.40;99.90
32660;DHT22;19064;47.912;12.308;2023-08-06T07:25:05;14.40;99.90
32660;DHT22;19064;47.912;12.308;2023-08-06T07:27:32;14.50;99.90
32660;DHT22;19064;47.912;12.308;2023-08-06T07:29:59;14.50;99.90
32660;DHT22;19064;47.912;12.308;2023-08-06T07:32:27;14.50;99.90
32660;DHT22;19064;47.912;12.308;2023-08-06T07:34:55;14.70;99.90
32660;DHT22;19064;47.912;12.308;2023-08-06T07:37:27;14.80;99.90
32660;DHT22;19064;47.912;12.308;2023-08-06T07:39:57;14.90;99.90
32660;DHT22;19064;47.912;12.308;2023-08-06T07:42:25;15.10;99.90
32660;DHT22;19064;47.912;12.308;2023-08-06T07:44:54;15.10;99.90
32660;DHT22;19064;47.912;12.308;2023-08-06T07:47:30;15.30;99.90
32660;DHT22;19064;47.912;12.308;2023-08-06T07:49:58;15.30;99.90
32660;DHT22;19064;47.912;12.308;2023-08-06T07:52:26;15.40;99.90
32660;DHT22;19064;47.912;12.308;2023-08-06T07:54:54;15.50;99.90
32660;DHT22;19064;47.912;12.308;2023-08-06T07:57:22;15.60;99.90
32660;DHT22;19064;47.912;12.308;2023-08-06T07:59:49;15.60;99.90
32660;DHT22;19064;47.912;12.308;2023-08-06T08:02:17;15.70;99.90
32660;DHT22;19064;47.912;12.308;2023-08-06T08:04:45;15.70;99.90
32660;DHT22;19064;47.912;12.308;2023-08-06T08:07:16;15.70;99.90
32660;DHT22;19064;47.912;12.308;2023-08-06T08:09:44;15.60;99.90
32660;DHT22;19064;47.912;12.308;2023-08-06T08:12:11;15.60;99.90
32660;DHT22;19064;47.912;12.308;2023-08-06T08:14:39;15.50;99.90
32660;DHT22;19064;47.912;12.308;2023-08-06T08:17:08;15.50;99.90
32660;DHT22;19064;47.912;12.308;2023-08-06T08:19:36;15.40;99.90
32660;DHT22;19064;47.912;12.308;2023-08-06T08:22:04;15.30;99.90
32660;DHT22;19064;47.912;12.308;2023-08-06T08:24:32;15.30;99.90
32660;DHT22;19064;47.912;12.308;2023-08-06T08:27:00;15.30;99.90
32660;DHT22;19064;47.912;12.308;2023-08-06T08:29:28;15.30;99.90
32660;DHT22;19064;47.912;12.308;2023-08-06T08:31:57;15.30;99.90
32660;DHT22;19064;47.912;12.308;2023-08-06T08:34:25;15.30;99.90
32660;DHT22;19064;47.912;12.308;2023-08-06T08:36:53;15.30;99.90
32660;DHT22;19064;47.912;12.308;2023-08-06T08:39:20;15.40;99.90
32660;DHT22;19064;47.912;12.308;2023-08-06T08:41:48;15.40;99.90
32660;DHT22;19064;47.912;12.308;2023-08-06T08:44:17;15.40;99.90
32660;DHT22;19064;47.912;12.308;2023-08-06T08:46:46;15.40;99.90
32660;DHT22;19064;47.912;12.308;2023-08-06T08:49:17;15.30;99.90
32660;DHT22;19064;47.912;12.308;2023-08-06T08:51:46;15.50;99.90
32660;DHT22;19064;47.912;12.308;2023-08-06T08:54:15;15.30;99.90
32660;DHT22;19064;47.912;12.308;2023-08-06T08:56:43;15.40;99.90
32660;DHT22;19064;47.912;12.308;2023-08-06T08:59:11;15.50;99.90
32660;DHT22;19064;47.912;12.308;2023-08-06T09:01:39;15.50;99.90
32660;DHT22;19064;47.912;12.308;2023-08-06T09:04:08;15.60;99.90
32660;DHT22;19064;47.912;12.308;2023-08-06T09:06:38;15.70;99.90
32660;DHT22;19064;47.912;12.308;2023-08-06T09:09:09;15.80;99.90
32660;DHT22;19064;47.912;12.308;2023-08-06T09:11:42;15.90;99.90
32660;DHT22;19064;47.912;12.308;2023-08-06T09:14:11;15.90;99.90
32660;DHT22;19064;47.912;12.308;2023-08-06T09:16:38;15.90;99.90
32660;DHT22;19064;47.912;12.308;2023-08-06T09:19:09;16.00;99.90
32660;DHT22;19064;47.912;12.308;2023-08-06T09:21:39;16.00;99.90
32660;DHT22;19064;47.912;12.308;2023-08-06T09:24:11;16.00;99.90
32660;DHT22;19064;47.912;12.308;2023-08-06T09:26:41;15.90;99.90
32660;DHT22;19064;47.912;12.308;2023-08-06T09:29:10;16.00;99.90
32660;DHT22;19064;47.912;12.308;2023-08-06T09:31:41;15.90;99.90
32660;DHT22;19064;47.912;12.308;2023-08-06T09:34:14;15.90;99.90
32660;DHT22;19064;47.912;12.308;2023-08-06T09:36:48;15.90;99.90
32660;DHT22;19064;47.912;12.308;2023-08-06T09:39:18;15.80;99.90
32660;DHT22;19064;47.912;12.308;2023-08-06T09:41:47;15.80;99.90
32660;DHT22;19064;47.912;12.308;2023-08-06T09:44:19;15.80;99.90
32660;DHT22;19064;47.912;12.308;2023-08-06T09:46:48;15.90;99.90
32660;DHT22;19064;47.912;12.308;2023-08-06T09:49:20;16.00;99.90
32660;DHT22;19064;47.912;12.308;2023-08-06T09:51:50;16.00;99.90
32660;DHT22;19064;47.912;12.308;2023-08-06T09:54:20;15.90;99.90
32660;DHT22;19064;47.912;12.308;2023-08-06T09:56:49;15.90;99.90
32660;DHT22;19064;47.912;12.308;2023-08-06T09:59:17;15.80;99.90
32660;DHT22;19064;47.912;12.308;2023-08-06T10:01:46;15.70;99.90
32660;DHT22;19064;47.912;12.308;2023-08-06T10:04:15;15.70;99.90
32660;DHT22;19064;47.912;12.308;2023-08-06T10:06:46;15.80;99.90
32660;DHT22;19064;47.912;12.308;2023-08-06T10:09:16;15.80;99.90
32660;DHT22;19064;47.912;12.308;2023-08-06T10:11:50;15.70;99.90
32660;DHT22;19064;47.912;12.308;2023-08-06T10:14:22;15.40;99.90
32660;DHT22;19064;47.912;12.308;2023-08-06T10:16:52;15.30;99.90
32660;DHT22;19064;47.912;12.308;2023-08-06T10:19:21;15.10;99.90
32660;DHT22;19064;47.912;12.308;2023-08-06T10:22:09;14.90;99.90
32660;DHT22;19064;47.912;12.308;2023-08-06T10:24:52;14.80;99.90
32660;DHT22;19064;47.912;12.308;2023-08-06T10:27:28;14.90;99.90
32660;DHT22;19064;47.912;12.308;2023-08-06T10:29:56;15.00;99.90
32660;DHT22;19064;47.912;12.308;2023-08-06T10:32:46;15.10;99.90
32660;DHT22;19064;47.912;12.308;2023-08-06T10:35:28;15.10;99.90
32660;DHT22;19064;47.912;12.308;2023-08-06T10:38:03;15.20;99.90
32660;DHT22;19064;47.912;12.308;2023-08-06T10:40:35;15.30;99.90
32660;DHT22;19064;47.912;12.308;2023-08-06T10:43:04;15.50;99.90
32660;DHT22;19064;47.912;12.308;2023-08-06T10:45:35;15.60;99.90
32660;DHT22;19064;47.912;12.308;2023-08-06T10:48:03;15.60;99.90
32660;DHT22;19064;47.912;12.308;2023-08-06T10:50:32;15.60;99.90
32660;DHT22;19064;47.912;12.308;2023-08-06T10:53:04;15.50;99.90
32660;DHT22;19064;47.912;12.308;2023-08-06T10:55:39;15.50;99.90
32660;DHT22;19064;47.912;12.308;2023-08-06T10:58:07;15.50;99.90
32660;DHT22;19064;47.912;12.308;2023-08-06T11:00:35;15.60;99.90
32660;DHT22;19064;47.912;12.308;2023-08-06T11:03:03;15.70;99.90
32660;DHT22;19064;47.912;12.308;2023-08-06T11:05:31;15.80;99.90
32660;DHT22;19064;47.912;12.308;2023-08-06T11:08:00;15.90;99.90
32660;DHT22;19064;47.912;12.308;2023-08-06T11:10:28;16.20;99.90
32660;DHT22;19064;47.912;12.308;2023-08-06T11:13:00;16.30;99.90
32660;DHT22;19064;47.912;12.308;2023-08-06T11:15:30;16.40;99.90
32660;DHT22;19064;47.912;12.308;2023-08-06T11:17:58;16.30;99.90
32660;DHT22;19064;47.912;12.308;2023-08-06T11:20:26;16.20;99.90
32660;DHT22;19064;47.912;12.308;2023-08-06T11:22:54;16.00;99.90
32660;DHT22;19064;47.912;12.308;2023-08-06T11:25:23;16.00;99.90
32660;DHT22;19064;47.912;12.308;2023-08-06T11:27:50;16.00;99.90
32660;DHT22;19064;47.912;12.308;2023-08-06T11:30:19;16.00;99.90
32660;DHT22;19064;47.912;12.308;2023-08-06T11:32:48;16.20;99.90
32660;DHT22;19064;47.912;12.308;2023-08-06T11:35:17;16.30;99.90
32660;DHT22;19064;47.912;12.308;2023-08-06T11:37:46;16.30;99.90
32660;DHT22;19064;47.912;12.308;2023-08-06T11:40:15;16.10;99.90
32660;DHT22;19064;47.912;12.308;2023-08-06T11:42:47;16.10;99.90
32660;DHT22;19064;47.912;12.308;2023-08-06T11:45:30;16.00;99.90
32660;DHT22;19064;47.912;12.308;2023-08-06T11:47:59;15.90;99.90
32660;DHT22;19064;47.912;12.308;2023-08-06T11:50:27;16.00;99.90
32660;DHT22;19064;47.912;12.308;2023-08-06T11:52:57;16.00;99.90
32660;DHT22;19064;47.912;12.308;2023-08-06T11:55:26;15.90;99.90
32660;DHT22;19064;47.912;12.308;2023-08-06T11:57:55;16.00;99.90
32660;DHT22;19064;47.912;12.308;2023-08-06T12:00:25;16.10;99.90
32660;DHT22;19064;47.912;12.308;2023-08-06T12:02:54;16.10;99.90
32660;DHT22;19064;47.912;12.308;2023-08-06T12:05:23;16.10;99.90
32660;DHT22;19064;47.912;12.308;2023-08-06T12:07:52;16.10;99.90
32660;DHT22;19064;47.912;12.308;2023-08-06T12:10:21;16.00;99.90
32660;DHT22;19064;47.912;12.308;2023-08-06T12:12:50;15.90;99.90
32660;DHT22;19064;47.912;12.308;2023-08-06T12:15:18;16.00;99.90
32660;DHT22;19064;47.912;12.308;2023-08-06T12:17:48;16.10;99.90
32660;DHT22;19064;47.912;12.308;2023-08-06T12:20:16;16.10;99.90
32660;DHT22;19064;47.912;12.308;2023-08-06T12:22:44;16.00;99.90
32660;DHT22;19064;47.912;12.308;2023-08-06T12:25:13;16.00;99.90
32660;DHT22;19064;47.912;12.308;2023-08-06T12:27:42;15.90;99.90
32660;DHT22;19064;47.912;12.308;2023-08-06T12:30:11;15.90;99.90
32660;DHT22;19064;47.912;12.308;2023-08-06T12:32:40;15.90;99.90
32660;DHT22;19064;47.912;12.308;2023-08-06T12:35:09;16.00;99.90
32660;DHT22;19064;47.912;12.308;2023-08-06T12:37:38;16.10;99.90
32660;DHT22;19064;47.912;12.308;2023-08-06T12:40:07;16.10;99.90
32660;DHT22;19064;47.912;12.308;2023-08-06T12:42:34;16.10;99.90
32660;DHT22;19064;47.912;12.308;2023-08-06T12:45:03;16.10;99.90
32660;DHT22;19064;47.912;12.308;2023-08-06T12:47:31;16.10;99.90
32660;DHT22;19064;47.912;12.308;2023-08-06T12:49:59;16.20;99.90
32660;DHT22;19064;47.912;12.308;2023-08-06T12:52:31;16.20;99.90
32660;DHT22;19064;47.912;12.308;2023-08-06T12:55:01;16.20;99.90
32660;DHT22;19064;47.912;12.308;2023-08-06T12:57:29;16.30;99.90
32660;DHT22;19064;47.912;12.308;2023-08-06T12:59:57;16.30;99.90
32660;DHT22;19064;47.912;12.308;2023-08-06T13:02:25;16.20;99.90
32660;DHT22;19064;47.912;12.308;2023-08-06T13:04:56;16.20;99.90
32660;DHT22;19064;47.912;12.308;2023-08-06T13:07:24;16.10;99.90
32660;DHT22;19064;47.912;12.308;2023-08-06T13:09:55;16.10;99.90
32660;DHT22;19064;47.912;12.308;2023-08-06T13:12:23;16.10;99.90
32660;DHT22;19064;47.912;12.308;2023-08-06T13:14:51;16.10;99.90
32660;DHT22;19064;47.912;12.308;2023-08-06T13:17:19;16.00;99.90
32660;DHT22;19064;47.912;12.308;2023-08-06T13:19:47;15.90;99.90
32660;DHT22;19064;47.912;12.308;2023-08-06T13:22:15;15.90;99.90
32660;DHT22;19064;47.912;12.308;2023-08-06T13:24:44;15.90;99.90
32660;DHT22;19064;47.912;12.308;2023-08-06T13:27:12;15.80;99.90
32660;DHT22;19064;47.912;12.308;2023-08-06T13:29:39;15.80;99.90
32660;DHT22;19064;47.912;12.308;2023-08-06T13:32:06;15.80;99.90
32660;DHT22;19064;47.912;12.308;2023-08-06T13:34:34;15.90;99.90
32660;DHT22;19064;47.912;12.308;2023-08-06T13:37:03;15.90;99.90
32660;DHT22;19064;47.912;12.308;2023-08-06T13:39:31;15.80;99.90
32660;DHT22;19064;47.912;12.308;2023-08-06T13:41:57;15.80;99.90
32660;DHT22;19064;47.912;12.308;2023-08-06T13:44:27;15.80;99.90
32660;DHT22;19064;47.912;12.308;2023-08-06T13:46:54;15.80;99.90
32660;DHT22;19064;47.912;12.308;2023-08-06T13:49:22;15.90;99.90
32660;DHT22;19064;47.912;12.308;2023-08-06T13:51:49;15.80;99.90
32660;DHT22;19064;47.912;12.308;2023-08-06T13:54:18;15.50;99.90
32660;DHT22;19064;47.912;12.308;2023-08-06T13:56:47;15.40;99.90
32660;DHT22;19064;47.912;12.308;2023-08-06T13:59:16;15.40;99.90
32660;DHT22;19064;47.912;12.308;2023-08-06T14:01:47;15.40;99.90
32660;DHT22;19064;47.912;12.308;2023-08-06T14:04:15;15.40;99.90
32660;DHT22;19064;47.912;12.308;2023-08-06T14:06:42;15.40;99.90
32660;DHT22;19064;47.912;12.308;2023-08-06T14:09:10;15.50;99.90
32660;DHT22;19064;47.912;12.308;2023-08-06T14:11:41;15.50;99.90
32660;DHT22;19064;47.912;12.308;2023-08-06T14:14:09;15.70;99.90
32660;DHT22;19064;47.912;12.308;2023-08-06T14:16:39;15.70;99.90
32660;DHT22;19064;47.912;12.308;2023-08-06T14:19:08;15.70;99.90
32660;DHT22;19064;47.912;12.308;2023-08-06T14:21:36;15.70;99.90
32660;DHT22;19064;47.912;12.308;2023-08-06T14:24:04;15.50;99.90
32660;DHT22;19064;47.912;12.308;2023-08-06T14:26:31;15.40;99.90
32660;DHT22;19064;47.912;12.308;2023-08-06T14:29:00;15.30;99.90
32660;DHT22;19064;47.912;12.308;2023-08-06T14:31:27;15.10;99.90
32660;DHT22;19064;47.912;12.308;2023-08-06T14:33:55;15.00;99.90
32660;DHT22;19064;47.912;12.308;2023-08-06T14:36:25;14.90;99.90
32660;DHT22;19064;47.912;12.308;2023-08-06T14:38:53;14.90;99.90
32660;DHT22;19064;47.912;12.308;2023-08-06T14:41:20;14.70;99.90
32660;DHT22;19064;47.912;12.308;2023-08-06T14:43:48;14.80;99.90
32660;DHT22;19064;47.912;12.308;2023-08-06T14:46:14;14.80;99.90
32660;DHT22;19064;47.912;12.308;2023-08-06T14:48:42;14.80;99.90
32660;DHT22;19064;47.912;12.308;2023-08-06T14:51:09;14.80;99.90
32660;DHT22;19064;47.912;12.308;2023-08-06T14:53:39;14.80;99.90
32660;DHT22;19064;47.912;12.308;2023-08-06T14:56:07;14.70;99.90
32660;DHT22;19064;47.912;12.308;2023-08-06T14:58:33;14.70;99.90
32660;DHT22;19064;47.912;12.308;2023-08-06T15:01:00;14.70;99.90
32660;DHT22;19064;47.912;12.308;2023-08-06T15:03:28;14.70;99.90
32660;DHT22;19064;47.912;12.308;2023-08-06T15:05:57;14.60;99.90
32660;DHT22;19064;47.912;12.308;2023-08-06T15:08:26;14.60;99.90
32660;DHT22;19064;47.912;12.308;2023-08-06T15:10:54;14.50;99.90
32660;DHT22;19064;47.912;12.308;2023-08-06T15:13:21;14.30;99.90
32660;DHT22;19064;47.912;12.308;2023-08-06T15:15:48;14.30;99.90
32660;DHT22;19064;47.912;12.308;2023-08-06T15:18:14;14.40;99.90
32660;DHT22;19064;47.912;12.308;2023-08-06T15:20:41;14.40;99.90
32660;DHT22;19064;47.912;12.308;2023-08-06T15:23:08;14.40;99.90